createdAt,value
2022-10-18T00:01:46.153Z,319.55
2022-10-18T00:04:17.624Z,322.37
2022-10-18T00:06:49.086Z,317.98
2022-10-18T00:09:20.607Z,308.48
2022-10-18T00:11:51.880Z,317.67
2022-10-18T00:14:26.314Z,305.63
2022-10-18T00:16:57.446Z,315.30
2022-10-18T00:19:29.475Z,315.20
2022-10-18T00:22:00.775Z,312.05
2022-10-18T00:24:32.314Z,321.13
2022-10-18T00:27:03.506Z,306.73
2022-10-18T00:29:38.228Z,316.33
2022-10-18T00:32:09.620Z,300.52
2022-10-18T00:34:42.084Z,312.80
2022-10-18T00:37:13.271Z,302.73
2022-10-18T00:39:45.260Z,300.13
2022-10-18T00:42:20.668Z,306.35
2022-10-18T00:45:27.263Z,303.30
2022-10-18T00:48:01.509Z,294.35
2022-10-18T00:50:36.499Z,304.02
2022-10-18T00:53:12.444Z,294.88
2022-10-18T00:55:43.957Z,309.60
2022-10-18T00:58:16.378Z,303.20
2022-10-18T01:00:50.855Z,312.42
2022-10-18T01:03:22.085Z,303.70
2022-10-18T01:05:53.606Z,298.37
2022-10-18T01:08:47.968Z,310.95
2022-10-18T01:11:40.327Z,302.67
2022-10-18T01:14:22.556Z,289.48
2022-10-18T01:17:02.769Z,295.50
2022-10-18T01:20:15.367Z,306.20
2022-10-18T01:22:50.533Z,296.67
2022-10-18T01:25:35.655Z,296.33
2022-10-18T01:28:18.255Z,286.85
2022-10-18T01:31:00.959Z,296.70
2022-10-18T01:33:41.007Z,300.38
2022-10-18T01:36:20.934Z,295.13
2022-10-18T01:38:55.273Z,301.02
2022-10-18T01:41:28.185Z,300.42
2022-10-18T01:44:02.157Z,296.95
2022-10-18T01:46:36.909Z,291.58
2022-10-18T01:49:08.684Z,289.65
2022-10-18T01:51:39.785Z,295.45
2022-10-18T01:54:12.504Z,300.95
2022-10-18T01:59:42.006Z,286.75
2022-10-18T02:02:27.204Z,282.65
2022-10-18T02:05:05.771Z,293.38
2022-10-18T02:07:48.970Z,287.35
2022-10-18T02:10:34.256Z,292.52
2022-10-18T02:13:05.757Z,288.60
2022-10-18T02:15:40.612Z,294.13
2022-10-18T02:18:18.911Z,291.65
2022-10-18T02:20:51.739Z,291.05
2022-10-18T02:23:28.512Z,290.63
2022-10-18T02:26:00.058Z,287.88
2022-10-18T02:28:31.432Z,291.92
2022-10-18T02:31:09.410Z,297.92
2022-10-18T02:33:50.039Z,290.75
2022-10-18T02:36:25.374Z,294.33
2022-10-18T02:39:01.701Z,286.42
2022-10-18T02:41:34.419Z,283.85
2022-10-18T02:44:05.631Z,291.17
2022-10-18T02:46:38.175Z,286.85
2022-10-18T02:49:11.948Z,288.77
2022-10-18T02:51:43.365Z,280.58
2022-10-18T02:54:14.517Z,283.95
2022-10-18T02:56:49.656Z,295.15
2022-10-18T02:59:20.897Z,288.95
2022-10-18T03:02:15.238Z,291.30
2022-10-18T03:04:49.279Z,285.92
2022-10-18T03:07:33.928Z,285.42
2022-10-18T03:10:05.178Z,286.88
2022-10-18T03:12:48.711Z,288.10
2022-10-18T03:15:21.226Z,285.05
2022-10-18T03:17:52.605Z,282.48
2022-10-18T03:20:26.571Z,281.02
2022-10-18T03:22:57.947Z,282.60
2022-10-18T03:25:29.138Z,282.90
2022-10-18T03:28:00.469Z,277.55
2022-10-18T03:30:31.628Z,279.73
2022-10-18T03:33:03.141Z,292.63
2022-10-18T03:35:36.985Z,280.20
2022-10-18T03:38:08.448Z,271.08
2022-10-18T03:40:39.565Z,282.33
2022-10-18T03:43:11.018Z,288.63
2022-10-18T03:45:43.279Z,281.30
2022-10-18T03:48:17.949Z,284.75
2022-10-18T03:50:51.804Z,268.90
2022-10-18T03:53:23.310Z,276.45
2022-10-18T03:55:55.182Z,282.30
2022-10-18T03:58:27.213Z,275.33
2022-10-18T04:00:58.752Z,270.85
2022-10-18T04:03:30.403Z,284.52
2022-10-18T04:06:04.314Z,283.43
2022-10-18T04:08:35.631Z,277.88
2022-10-18T04:11:11.320Z,280.85
2022-10-18T04:13:42.788Z,285.13
2022-10-18T04:16:14.051Z,277.10
2022-10-18T04:18:45.421Z,282.10
2022-10-18T04:21:19.190Z,291.42
2022-10-18T04:23:50.872Z,286.33
2022-10-18T04:26:23.011Z,295.25
2022-10-18T04:31:25.643Z,283.60
2022-10-18T04:33:57.538Z,290.23
2022-10-18T04:36:31.280Z,302.40
2022-10-18T04:39:02.671Z,292.42
2022-10-18T04:41:34.024Z,312.52
2022-10-18T04:44:05.466Z,304.85
2022-10-18T04:46:36.620Z,323.50
2022-10-18T04:49:08.040Z,316.50
2022-10-18T04:51:41.870Z,319.10
2022-10-18T04:54:13.344Z,317.38
2022-10-18T04:56:44.441Z,325.23
2022-10-18T04:59:15.869Z,322.23
2022-10-18T05:01:47.170Z,317.33
2022-10-18T05:04:18.752Z,335.13
2022-10-18T05:06:52.697Z,326.95
2022-10-18T05:09:24.973Z,337.15
2022-10-18T05:11:56.201Z,339.17
2022-10-18T05:14:27.848Z,327.13
2022-10-18T05:17:02.030Z,334.45
2022-10-18T05:19:33.462Z,319.67
2022-10-18T05:22:07.158Z,324.50
2022-10-18T05:24:38.651Z,313.65
2022-10-18T05:27:10.493Z,312.25
2022-10-18T05:29:41.914Z,313.42
2022-10-18T05:32:13.068Z,320.27
2022-10-18T05:34:44.562Z,321.90
2022-10-18T05:37:18.953Z,325.52
2022-10-18T05:39:50.532Z,316.05
2022-10-18T05:42:21.657Z,327.58
2022-10-18T05:44:53.083Z,319.80
2022-10-18T05:47:24.450Z,327.08
2022-10-18T05:49:55.844Z,316.90
2022-10-18T05:52:29.867Z,324.48
2022-10-18T05:55:01.443Z,312.50
2022-10-18T05:57:35.159Z,323.73
2022-10-18T06:00:08.338Z,326.33
2022-10-18T06:02:42.909Z,333.83
2022-10-18T06:05:14.452Z,343.97
2022-10-18T06:07:48.582Z,350.33
2022-10-18T06:10:20.137Z,332.40
2022-10-18T06:12:51.450Z,344.98
2022-10-18T06:15:22.846Z,349.90
2022-10-18T06:46:15.725Z,362.85
2022-10-18T06:49:19.315Z,378.48
2022-10-18T06:51:50.934Z,389.88
2022-10-18T06:54:22.617Z,386.33
2022-10-18T06:56:53.789Z,402.65
2022-10-18T06:59:27.512Z,389.07
2022-10-18T07:02:04.265Z,411.88
2022-10-18T07:04:35.832Z,410.00
2022-10-18T07:07:06.999Z,410.50
2022-10-18T07:09:39.274Z,414.38
2022-10-18T07:12:12.465Z,409.83
2022-10-18T07:14:43.904Z,413.92
2022-10-18T07:17:17.895Z,408.63
2022-10-18T07:19:49.390Z,421.98
2022-10-18T07:22:20.505Z,437.80
2022-10-18T07:24:51.960Z,422.87
2022-10-18T07:27:23.013Z,434.33
2022-10-18T07:29:54.542Z,437.23
2022-10-18T07:32:28.384Z,435.70
2022-10-18T07:34:59.795Z,446.42
2022-10-18T07:37:31.256Z,434.58
2022-10-18T07:40:02.961Z,431.70
2022-10-18T07:42:36.702Z,441.38
2022-10-18T07:45:08.834Z,434.02
2022-10-18T07:47:42.630Z,443.58
2022-10-18T07:50:14.372Z,447.55
2022-10-18T07:52:46.280Z,446.67
2022-10-18T07:57:48.558Z,433.25
2022-10-18T08:00:20.227Z,428.02
2022-10-18T08:02:59.356Z,443.42
2022-10-18T08:08:25.314Z,445.10
2022-10-18T08:10:57.106Z,448.58
2022-10-18T08:13:28.359Z,439.83
2022-10-18T08:16:03.041Z,436.60
2022-10-18T08:18:38.288Z,450.85
2022-10-18T08:21:13.878Z,453.63
2022-10-18T08:23:46.099Z,458.52
2022-10-18T08:26:37.491Z,462.63
2022-10-18T08:29:22.531Z,448.73
2022-10-18T08:31:56.379Z,452.92
2022-10-18T08:34:30.432Z,446.85
2022-10-18T08:37:04.283Z,451.17
2022-10-18T08:39:35.527Z,448.98
2022-10-18T08:42:34.584Z,447.38
2022-10-18T08:45:17.986Z,443.98
2022-10-18T08:48:01.654Z,459.67
2022-10-18T08:50:39.096Z,446.35
2022-10-18T08:53:20.567Z,467.88
2022-10-18T08:55:56.160Z,458.10
2022-10-18T08:58:31.054Z,454.58
2022-10-18T09:01:10.472Z,471.52
2022-10-18T09:04:20.441Z,474.35
2022-10-18T09:07:01.786Z,470.25
2022-10-18T09:09:42.429Z,472.45
2022-10-18T09:12:28.099Z,473.17
2022-10-18T09:15:19.020Z,476.33
2022-10-18T09:18:07.806Z,479.52
2022-10-18T09:20:50.858Z,473.60
2022-10-18T09:23:28.892Z,474.85
2022-10-18T09:26:09.492Z,474.95
2022-10-18T09:28:53.201Z,488.02
2022-10-18T09:31:33.629Z,483.25
2022-10-18T09:34:08.387Z,488.00
2022-10-18T09:36:41.862Z,475.58
2022-10-18T09:39:18.154Z,473.33
2022-10-18T09:41:53.314Z,466.80
2022-10-18T09:44:31.246Z,460.42
2022-10-18T09:47:05.728Z,464.55
2022-10-18T09:49:43.292Z,470.42
2022-10-18T09:52:21.694Z,474.83
2022-10-18T09:55:00.141Z,482.73
2022-10-18T09:57:38.254Z,486.58
2022-10-18T10:00:16.833Z,479.25
2022-10-18T10:02:48.306Z,467.13
2022-10-18T10:05:19.585Z,481.07
2022-10-18T10:07:52.048Z,468.75
2022-10-18T10:13:08.714Z,470.08
2022-10-18T10:15:42.544Z,478.05
2022-10-18T10:18:24.044Z,477.38
2022-10-18T10:20:57.160Z,478.30
2022-10-18T10:23:29.992Z,492.40
2022-10-18T10:26:06.816Z,500.48
2022-10-18T10:28:46.531Z,507.63
2022-10-18T10:31:29.488Z,508.25
2022-10-18T10:34:06.971Z,496.02
2022-10-18T10:36:49.367Z,504.73
2022-10-18T10:39:22.809Z,497.58
2022-10-18T10:41:58.677Z,511.92
2022-10-18T10:44:33.385Z,496.52
2022-10-18T10:47:04.652Z,513.08
2022-10-18T10:49:50.166Z,493.02
2022-10-18T10:52:28.132Z,505.77
2022-10-18T10:55:11.374Z,516.63
2022-10-18T10:57:57.647Z,498.13
2022-10-18T11:00:42.325Z,517.38
2022-10-18T11:03:33.768Z,518.40
2022-10-18T11:06:05.277Z,506.90
2022-10-18T11:08:43.766Z,518.60
2022-10-18T11:11:23.091Z,517.28
2022-10-18T11:17:07.916Z,500.47
2022-10-18T11:19:45.763Z,485.98
2022-10-18T11:22:21.476Z,513.80
2022-10-18T11:24:52.820Z,499.95
2022-10-18T11:27:29.628Z,516.00
2022-10-18T11:30:20.590Z,510.77
2022-10-18T11:33:00.011Z,503.95
2022-10-18T11:35:41.714Z,499.83
2022-10-18T11:38:24.131Z,502.23
2022-10-18T11:41:16.759Z,497.25
2022-10-18T11:44:03.986Z,500.55
2022-10-18T11:46:48.832Z,503.35
2022-10-18T11:49:47.642Z,492.90
2022-10-18T11:52:25.140Z,500.92
2022-10-18T11:55:07.994Z,495.92
2022-10-18T11:57:53.131Z,505.80
2022-10-18T12:00:39.553Z,510.95
2022-10-18T12:03:31.025Z,509.75
2022-10-18T12:06:07.798Z,507.08
2022-10-18T12:08:42.827Z,515.72
2022-10-18T12:11:19.652Z,508.10
2022-10-18T12:13:54.431Z,510.33
2022-10-18T12:16:50.088Z,513.78
2022-10-18T12:19:27.246Z,507.95
2022-10-18T12:22:00.931Z,502.85
2022-10-18T12:24:34.924Z,513.10
2022-10-18T12:27:07.076Z,524.15
2022-10-18T12:30:05.533Z,514.58
2022-10-18T12:32:39.693Z,519.10
2022-10-18T12:35:18.251Z,506.65
2022-10-18T12:38:11.865Z,514.90
2022-10-18T12:40:48.285Z,513.08
2022-10-18T12:43:24.172Z,509.92
2022-10-18T12:45:57.479Z,516.17
2022-10-18T12:48:33.609Z,509.17
2022-10-18T12:51:10.432Z,494.67
2022-10-18T12:53:42.403Z,505.92
2022-10-18T12:56:41.968Z,500.33
2022-10-18T12:59:53.874Z,502.02
2022-10-18T13:02:31.005Z,502.30
2022-10-18T13:05:03.206Z,501.90
2022-10-18T13:07:44.871Z,508.08
2022-10-18T13:10:43.904Z,494.27
2022-10-18T13:13:47.622Z,497.65
2022-10-18T13:16:40.605Z,492.25
2022-10-18T13:19:25.826Z,505.55
2022-10-18T13:22:13.263Z,508.25
2022-10-18T13:25:01.920Z,508.80
2022-10-18T13:27:43.513Z,513.65
2022-10-18T13:30:35.698Z,514.87
2022-10-18T13:33:33.579Z,515.95
2022-10-18T13:36:06.773Z,501.45
2022-10-18T13:38:58.493Z,493.88
2022-10-18T13:41:35.488Z,504.95
2022-10-18T13:44:32.084Z,499.50
2022-10-18T13:47:14.841Z,499.23
2022-10-18T13:50:09.943Z,508.80
2022-10-18T13:53:12.297Z,508.98
2022-10-18T13:56:01.424Z,500.67
2022-10-18T13:58:49.187Z,494.55
2022-10-18T14:01:42.471Z,504.60
2022-10-18T14:04:42.940Z,498.23
2022-10-18T14:07:15.418Z,493.08
2022-10-18T14:12:31.899Z,489.90
2022-10-18T14:15:10.935Z,492.17
2022-10-18T14:17:47.053Z,487.35
2022-10-18T14:20:27.258Z,494.45
2022-10-18T14:23:07.925Z,500.98
2022-10-18T14:25:41.079Z,492.83
2022-10-18T14:28:17.424Z,486.20
2022-10-18T14:31:02.189Z,500.35
2022-10-18T14:33:39.070Z,494.40
2022-10-18T14:36:15.633Z,495.90
2022-10-18T14:38:54.497Z,495.30
2022-10-18T14:41:27.626Z,479.17
2022-10-18T14:44:21.330Z,488.77
2022-10-18T14:47:01.639Z,486.15
2022-10-18T14:49:33.624Z,494.02
2022-10-18T14:52:05.080Z,474.70
2022-10-18T14:54:40.494Z,490.23
2022-10-18T14:57:20.197Z,474.48
2022-10-18T14:59:57.155Z,477.50
2022-10-18T15:02:33.122Z,481.92
2022-10-18T15:05:11.282Z,481.80
2022-10-18T15:07:42.551Z,494.08
2022-10-18T15:10:19.290Z,486.30
2022-10-18T15:13:08.631Z,491.42
2022-10-18T15:15:43.308Z,481.23
2022-10-18T15:18:23.973Z,489.05
2022-10-18T15:21:23.639Z,486.60
2022-10-18T15:23:56.225Z,489.13
2022-10-18T15:26:30.935Z,489.65
2022-10-18T15:29:04.480Z,481.40
2022-10-18T15:31:45.938Z,480.67
2022-10-18T15:34:23.037Z,489.88
2022-10-18T15:36:56.668Z,474.70
2022-10-18T15:39:30.736Z,494.02
2022-10-18T15:42:03.596Z,477.88
2022-10-18T15:44:37.887Z,475.50
2022-10-18T15:47:23.709Z,484.92
2022-10-18T15:49:59.102Z,469.77
2022-10-18T15:52:39.808Z,471.23
2022-10-18T15:55:41.016Z,487.30
2022-10-18T15:58:18.967Z,483.67
2022-10-18T16:00:51.455Z,482.63
2022-10-18T16:03:25.090Z,476.25
2022-10-18T16:06:03.289Z,481.63
2022-10-18T16:08:37.611Z,481.85
2022-10-18T16:11:09.585Z,487.58
2022-10-18T16:16:16.714Z,455.00
2022-10-18T16:18:48.406Z,469.13
2022-10-18T16:21:26.448Z,471.88
2022-10-18T16:23:58.264Z,469.10
2022-10-18T16:26:30.812Z,474.40
2022-10-18T16:29:03.132Z,466.17
2022-10-18T16:31:37.498Z,474.80
2022-10-18T16:34:11.240Z,484.67
2022-10-18T16:36:45.497Z,476.48
2022-10-18T16:39:19.669Z,467.15
2022-10-18T16:41:51.928Z,466.27
2022-10-18T16:44:23.848Z,473.58
2022-10-18T16:46:56.941Z,474.52
2022-10-18T16:49:29.737Z,465.63
2022-10-18T16:52:03.877Z,471.48
2022-10-18T16:54:36.006Z,465.48
2022-10-18T16:57:07.902Z,469.15
2022-10-18T17:02:12.803Z,443.75
2022-10-18T17:04:44.675Z,453.27
2022-10-18T17:07:26.288Z,462.23
2022-10-18T17:09:58.257Z,458.73
2022-10-18T17:12:29.831Z,470.83
2022-10-18T17:15:01.820Z,459.75
2022-10-18T17:17:33.792Z,462.95
2022-10-18T17:20:08.182Z,460.45
2022-10-18T17:22:42.162Z,455.52
2022-10-18T17:25:13.703Z,466.98
2022-10-18T17:27:45.047Z,464.90
2022-10-18T17:30:18.162Z,462.88
2022-10-18T17:32:49.650Z,462.95
2022-10-18T17:35:21.447Z,471.52
2022-10-18T17:37:56.536Z,451.42
2022-10-18T17:40:28.524Z,462.70
2022-10-18T17:43:00.229Z,463.70
2022-10-18T17:45:32.441Z,457.77
2022-10-18T17:48:07.012Z,454.23
2022-10-18T17:50:42.931Z,458.42
2022-10-18T17:53:22.704Z,462.20
2022-10-18T17:56:02.775Z,455.10
2022-10-18T17:58:34.996Z,468.08
2022-10-18T18:01:14.751Z,447.48
2022-10-18T18:03:47.910Z,461.05
2022-10-18T18:06:21.623Z,460.50
2022-10-18T18:08:55.746Z,466.52
2022-10-18T18:11:28.458Z,461.20
2022-10-18T18:13:59.932Z,463.55
2022-10-18T18:16:33.011Z,471.60
2022-10-18T18:19:09.416Z,460.48
2022-10-18T18:21:43.344Z,466.73
2022-10-18T18:24:20.385Z,448.45
2022-10-18T18:26:52.346Z,447.13
2022-10-18T18:29:24.346Z,461.15
2022-10-18T18:34:27.927Z,445.73
2022-10-18T18:39:35.984Z,445.63
2022-10-18T18:42:09.027Z,454.17
2022-10-18T18:44:40.958Z,454.73
2022-10-18T18:49:45.205Z,440.65
2022-10-18T18:52:17.175Z,447.50
2022-10-18T18:54:51.275Z,459.23
2022-10-18T18:57:23.560Z,462.35
2022-10-18T18:59:55.285Z,458.25
2022-10-18T19:02:27.683Z,455.38
2022-10-18T19:05:01.368Z,456.65
2022-10-18T19:07:35.636Z,453.48
2022-10-18T19:10:11.160Z,467.70
2022-10-18T19:12:43.217Z,453.02
2022-10-18T19:15:15.130Z,449.80
2022-10-18T19:20:18.831Z,434.92
2022-10-18T19:22:50.477Z,434.75
2022-10-18T19:25:26.951Z,446.40
2022-10-18T19:27:58.903Z,459.00
2022-10-18T19:30:30.635Z,451.05
2022-10-18T19:35:36.679Z,420.45
2022-10-18T19:38:08.668Z,439.27
2022-10-18T19:40:42.877Z,442.80
2022-10-18T19:43:15.016Z,435.20
2022-10-18T19:45:46.321Z,437.17
2022-10-18T19:48:18.240Z,433.08
2022-10-18T19:50:50.994Z,427.27
2022-10-18T19:53:22.682Z,430.23
2022-10-18T19:56:01.480Z,441.60
2022-10-18T19:58:33.298Z,430.23
2022-10-18T20:01:04.985Z,425.50
2022-10-18T20:03:36.581Z,420.67
2022-10-18T20:06:08.324Z,415.77
2022-10-18T20:11:35.717Z,413.02
2022-10-18T20:14:09.726Z,408.02
2022-10-18T20:16:41.222Z,429.83
2022-10-18T20:19:13.919Z,427.58
2022-10-18T20:21:45.280Z,419.30
2022-10-18T20:24:16.713Z,425.60
2022-10-18T20:26:50.491Z,424.00
2022-10-18T20:29:25.293Z,421.75
2022-10-18T20:31:57.431Z,421.38
2022-10-18T20:34:29.331Z,413.20
2022-10-18T20:37:00.575Z,415.17
2022-10-18T20:39:33.661Z,407.75
2022-10-18T20:42:07.410Z,410.52
2022-10-18T20:44:43.502Z,416.48
2022-10-18T20:47:14.710Z,411.63
2022-10-18T20:49:46.303Z,421.80
2022-10-18T20:52:17.474Z,412.42
2022-10-18T20:54:49.014Z,411.83
2022-10-18T20:57:22.880Z,416.42
2022-10-18T20:59:54.383Z,406.25
2022-10-18T21:02:25.699Z,426.42
2022-10-18T21:04:57.290Z,422.75
2022-10-18T21:07:28.655Z,418.10
2022-10-18T21:10:00.311Z,423.60
2022-10-18T21:12:35.156Z,420.00
2022-10-18T21:15:07.695Z,420.95
2022-10-18T21:17:38.790Z,427.15
2022-10-18T21:20:12.466Z,425.85
2022-10-18T21:22:43.899Z,429.85
2022-10-18T21:25:15.453Z,424.88
2022-10-18T21:27:49.283Z,424.08
2022-10-18T21:30:20.865Z,434.95
2022-10-18T21:32:52.742Z,429.58
2022-10-18T21:37:54.960Z,403.35
2022-10-18T21:40:26.452Z,425.25
2022-10-18T21:43:00.679Z,415.83
2022-10-18T21:45:32.123Z,416.67
2022-10-18T21:48:03.396Z,415.23
2022-10-18T21:50:37.268Z,407.52
2022-10-18T21:53:08.439Z,418.42
2022-10-18T21:55:39.777Z,412.77
2022-10-18T21:58:14.025Z,413.02
2022-10-18T22:00:45.552Z,421.33
2022-10-18T22:03:17.212Z,404.80
2022-10-18T22:05:48.584Z,396.00
2022-10-18T22:08:20.040Z,409.33
2022-10-18T22:10:51.528Z,400.52
2022-10-18T22:13:25.437Z,414.38
2022-10-18T22:15:56.927Z,407.35
2022-10-18T22:18:28.184Z,412.58
2022-10-18T22:21:00.927Z,404.33
2022-10-18T22:23:35.071Z,420.35
2022-10-18T22:26:08.109Z,413.67
2022-10-18T22:28:42.774Z,411.00
2022-10-18T22:31:19.504Z,413.67
2022-10-18T22:33:55.049Z,401.17
2022-10-18T22:36:27.000Z,403.58
2022-10-18T22:38:58.365Z,413.38
2022-10-18T22:41:29.988Z,420.45
2022-10-18T22:44:04.150Z,390.85
2022-10-18T22:46:35.811Z,402.00
2022-10-18T22:49:07.086Z,411.85
2022-10-18T22:51:38.500Z,408.25
2022-10-18T22:54:10.129Z,410.15
2022-10-18T22:56:41.736Z,409.70
2022-10-18T22:59:15.480Z,402.33
2022-10-18T23:01:46.877Z,387.67
2022-10-18T23:04:17.999Z,413.35
2022-10-18T23:06:49.421Z,384.53
2022-10-18T23:09:20.611Z,405.75
2022-10-18T23:11:53.105Z,395.90
2022-10-18T23:16:57.997Z,388.88
2022-10-18T23:19:29.152Z,402.35
2022-10-18T23:22:00.499Z,406.37
2022-10-18T23:24:32.184Z,394.20
2022-10-18T23:27:03.681Z,394.15
2022-10-18T23:29:37.471Z,401.88
2022-10-18T23:32:09.272Z,390.90
2022-10-18T23:34:40.473Z,400.88
2022-10-18T23:37:11.967Z,395.80
2022-10-18T23:39:43.128Z,400.60
2022-10-18T23:42:14.545Z,394.15
2022-10-18T23:44:48.416Z,388.52
2022-10-18T23:47:19.951Z,389.33
2022-10-18T23:49:51.065Z,402.13
2022-10-18T23:52:22.349Z,410.73
2022-10-18T23:54:53.648Z,408.80
2022-10-18T23:57:24.980Z,397.65
2022-10-18T23:59:58.836Z,398.58
